createdAt,value
2022-12-14T00:02:11.231Z,18.90
2022-12-14T00:07:04.413Z,17.40
2022-12-14T00:11:57.635Z,14.33
2022-12-14T00:16:53.124Z,14.43
2022-12-14T00:21:47.282Z,13.23
2022-12-14T00:26:42.607Z,14.67
2022-12-14T00:31:36.564Z,14.90
2022-12-14T00:36:32.268Z,14.77
2022-12-14T00:41:25.509Z,15.57
2022-12-14T00:46:19.277Z,15.43
2022-12-14T00:51:14.943Z,15.53
2022-12-14T00:56:10.331Z,15.00
2022-12-14T01:01:08.257Z,14.83
2022-12-14T01:11:33.276Z,14.47
2022-12-14T01:16:26.638Z,14.67
2022-12-14T01:21:22.141Z,14.60
2022-12-14T01:26:16.842Z,16.10
2022-12-14T01:31:13.789Z,16.30
2022-12-14T01:36:45.983Z,15.07
2022-12-14T01:41:43.347Z,27.10
2022-12-14T01:46:44.151Z,28.67
2022-12-14T01:51:59.870Z,26.03
2022-12-14T01:56:55.434Z,18.27
2022-12-14T02:01:55.284Z,16.70
2022-12-14T02:06:54.173Z,15.87
2022-12-14T02:11:57.142Z,15.40
2022-12-14T02:16:54.423Z,15.47
2022-12-14T02:22:15.352Z,14.20
2022-12-14T02:27:39.471Z,13.27
2022-12-14T02:32:51.477Z,14.40
2022-12-14T02:37:55.532Z,16.10
2022-12-14T02:43:03.094Z,15.27
2022-12-14T02:48:02.835Z,16.00
2022-12-14T02:53:06.293Z,15.03
2022-12-14T02:58:03.045Z,15.93
2022-12-14T03:02:59.901Z,18.10
2022-12-14T03:07:57.028Z,15.20
2022-12-14T03:12:55.739Z,15.40
2022-12-14T03:17:52.776Z,15.50
2022-12-14T03:22:56.591Z,15.87
2022-12-14T03:27:54.921Z,14.70
2022-12-14T03:32:50.982Z,15.27
2022-12-14T03:37:58.284Z,15.23
2022-12-14T03:43:35.649Z,14.67
2022-12-14T03:48:51.558Z,15.50
2022-12-14T03:53:54.100Z,15.43
2022-12-14T03:58:57.681Z,15.00
2022-12-14T04:03:56.553Z,17.60
2022-12-14T04:08:59.692Z,17.40
2022-12-14T04:14:20.137Z,15.73
2022-12-14T04:19:21.228Z,16.80
2022-12-14T04:24:40.847Z,16.50
2022-12-14T04:30:05.391Z,15.83
2022-12-14T04:35:04.079Z,15.27
2022-12-14T04:40:03.950Z,16.17
2022-12-14T04:45:03.925Z,15.40
2022-12-14T04:50:04.702Z,17.93
2022-12-14T04:55:06.031Z,16.60
2022-12-14T05:00:01.615Z,17.80
2022-12-14T05:05:00.985Z,19.13
2022-12-14T05:09:58.623Z,19.73
2022-12-14T05:15:00.453Z,19.43
2022-12-14T05:19:57.423Z,18.47
2022-12-14T05:24:51.281Z,18.87
2022-12-14T05:29:44.768Z,18.07
2022-12-14T05:34:39.558Z,17.17
2022-12-14T05:39:33.011Z,18.03
2022-12-14T05:44:26.332Z,20.10
2022-12-14T05:49:19.691Z,19.60
2022-12-14T05:54:19.215Z,19.23
2022-12-14T05:59:16.020Z,21.47
2022-12-14T06:04:09.478Z,21.30
2022-12-14T06:09:02.918Z,19.40
2022-12-14T06:13:57.638Z,19.70
2022-12-14T06:18:55.224Z,19.50
2022-12-14T06:23:51.140Z,21.10
2022-12-14T06:28:45.452Z,21.53
2022-12-14T06:33:43.012Z,22.97
2022-12-14T06:38:51.948Z,21.20
2022-12-14T06:44:13.399Z,23.70
2022-12-14T07:01:21.258Z,21.30
2022-12-14T07:13:45.796Z,19.60
2022-12-14T07:18:54.846Z,21.83
2022-12-14T07:23:56.659Z,18.83
2022-12-14T07:28:52.661Z,19.27
2022-12-14T07:33:48.337Z,18.57
2022-12-14T07:38:43.141Z,18.53
2022-12-14T07:43:36.953Z,20.27
2022-12-14T07:48:45.292Z,19.13
2022-12-14T07:53:40.240Z,20.17
2022-12-14T07:58:34.017Z,21.93
2022-12-14T08:03:27.646Z,22.17
2022-12-14T08:08:24.555Z,21.00
2022-12-14T08:13:17.778Z,19.20
2022-12-14T08:18:11.004Z,19.63
2022-12-14T08:23:07.266Z,19.83
2022-12-14T08:28:02.885Z,19.73
2022-12-14T08:32:57.337Z,18.40
2022-12-14T08:38:03.982Z,16.80
2022-12-14T08:42:57.331Z,17.63
2022-12-14T08:47:51.869Z,17.87
2022-12-14T08:52:50.671Z,19.33
2022-12-14T08:57:46.038Z,18.57
2022-12-14T09:02:39.764Z,17.13
2022-12-14T09:07:37.429Z,16.13
2022-12-14T09:12:31.116Z,16.30
2022-12-14T09:17:29.494Z,17.07
2022-12-14T09:22:22.998Z,16.97
2022-12-14T09:27:17.974Z,17.97
2022-12-14T09:32:16.870Z,23.17
2022-12-14T09:37:10.284Z,27.47
2022-12-14T09:42:15.272Z,15.87
2022-12-14T09:47:17.001Z,20.23
2022-12-14T09:52:17.250Z,18.20
2022-12-14T09:57:16.082Z,17.05
2022-12-14T10:02:31.390Z,18.80
2022-12-14T10:07:34.131Z,20.10
2022-12-14T10:12:50.447Z,20.87
2022-12-14T10:18:49.939Z,18.23
2022-12-14T10:23:39.785Z,18.30
2022-12-14T10:28:43.161Z,18.43
2022-12-14T10:33:43.857Z,18.83
2022-12-14T10:38:46.311Z,18.05
2022-12-14T10:43:49.523Z,18.30
2022-12-14T10:48:52.494Z,18.98
2022-12-14T10:53:50.852Z,17.57
2022-12-14T10:58:46.781Z,21.17
2022-12-14T11:03:53.277Z,20.60
2022-12-14T11:08:49.029Z,16.97
2022-12-14T11:13:49.519Z,15.67
2022-12-14T11:18:42.797Z,17.15
2022-12-14T11:23:40.588Z,16.40
2022-12-14T11:28:38.988Z,16.40
2022-12-14T11:33:37.618Z,15.90
2022-12-14T11:38:31.809Z,16.13
2022-12-14T11:43:34.109Z,17.17
2022-12-14T11:48:29.281Z,16.67
2022-12-14T11:54:16.816Z,16.25
2022-12-14T11:59:24.478Z,16.37
2022-12-14T12:04:18.996Z,16.47
2022-12-14T12:09:26.571Z,16.37
2022-12-14T12:14:28.730Z,15.83
2022-12-14T12:19:28.513Z,18.77
2022-12-14T12:24:25.328Z,20.20
2022-12-14T12:29:27.185Z,20.17
2022-12-14T12:34:25.917Z,21.27
2022-12-14T12:39:25.423Z,19.90
2022-12-14T12:44:29.044Z,18.90
2022-12-14T12:49:23.194Z,19.67
2022-12-14T12:54:24.912Z,21.67
2022-12-14T12:59:21.369Z,21.77
2022-12-14T13:04:27.883Z,20.43
2022-12-14T13:09:34.456Z,20.70
2022-12-14T13:14:33.272Z,22.97
2022-12-14T13:19:54.883Z,24.47
2022-12-14T13:24:58.885Z,24.10
2022-12-14T13:30:05.605Z,26.00
2022-12-14T13:35:16.118Z,26.27
2022-12-14T13:40:54.439Z,23.50
2022-12-14T13:45:50.164Z,22.10
2022-12-14T13:50:54.202Z,22.53
2022-12-14T13:55:56.738Z,23.17
2022-12-14T14:01:04.277Z,22.87
2022-12-14T14:06:02.158Z,21.53
2022-12-14T14:11:20.579Z,22.47
2022-12-14T14:16:28.402Z,24.00
2022-12-14T14:22:06.177Z,23.47
2022-12-14T14:27:01.703Z,27.80
2022-12-14T14:32:00.260Z,24.30
2022-12-14T14:36:55.570Z,24.60
2022-12-14T14:41:53.567Z,23.23
2022-12-14T14:51:44.285Z,28.63
2022-12-14T14:56:40.202Z,32.77
2022-12-14T15:01:33.799Z,36.97
2022-12-14T15:06:30.291Z,32.30
2022-12-14T15:11:28.011Z,42.83
2022-12-14T15:17:00.664Z,47.00
2022-12-14T15:22:00.750Z,42.30
2022-12-14T15:26:57.406Z,39.73
2022-12-14T15:32:00.828Z,44.33
2022-12-14T15:36:54.980Z,47.17
2022-12-14T15:42:02.446Z,35.23
2022-12-14T15:47:03.499Z,33.27
2022-12-14T15:52:01.013Z,34.10
2022-12-14T15:56:57.126Z,62.07
2022-12-14T16:01:58.950Z,37.83
2022-12-14T16:07:08.130Z,42.00
2022-12-14T16:12:09.054Z,36.87
2022-12-14T16:17:04.484Z,32.97
2022-12-14T16:22:24.676Z,37.23
2022-12-14T16:27:21.275Z,36.97
2022-12-14T16:32:17.627Z,42.40
2022-12-14T16:37:34.590Z,39.83
2022-12-14T16:42:32.919Z,44.63
2022-12-14T16:47:45.785Z,45.03
2022-12-14T16:52:41.850Z,42.10
2022-12-14T16:57:41.536Z,36.57
2022-12-14T17:02:40.612Z,43.73
2022-12-14T17:07:36.470Z,44.83
2022-12-14T17:12:30.012Z,43.37
2022-12-14T17:17:33.374Z,40.03
2022-12-14T17:22:30.002Z,54.27
2022-12-14T17:27:26.796Z,42.70
2022-12-14T17:32:27.066Z,39.83
2022-12-14T17:37:22.384Z,41.33
2022-12-14T17:42:18.244Z,41.27
2022-12-14T17:47:14.175Z,41.30
2022-12-14T17:52:16.976Z,41.07
2022-12-14T17:57:17.113Z,47.10
2022-12-14T18:02:28.208Z,52.33
2022-12-14T18:07:23.217Z,46.53
2022-12-14T18:12:25.010Z,48.57
2022-12-14T18:17:18.816Z,37.10
2022-12-14T18:22:14.407Z,32.70
2022-12-14T18:27:09.610Z,22.50
2022-12-14T18:32:03.392Z,22.67
2022-12-14T18:36:59.693Z,29.23
2022-12-14T18:41:52.996Z,30.37
2022-12-14T18:46:50.206Z,24.97
2022-12-14T18:51:44.109Z,23.97
2022-12-14T18:56:38.093Z,36.63
2022-12-14T19:01:31.553Z,29.43
2022-12-14T19:06:44.228Z,20.47
2022-12-14T19:11:42.053Z,16.47
2022-12-14T19:16:45.732Z,8.83
2022-12-14T19:21:41.763Z,9.05
2022-12-14T19:26:35.141Z,9.18
2022-12-14T19:31:34.918Z,9.93
2022-12-14T19:36:29.988Z,9.70
2022-12-14T19:41:25.007Z,10.70
2022-12-14T19:46:23.226Z,8.70
2022-12-14T19:51:17.430Z,8.30
2022-12-14T19:56:11.628Z,8.30
2022-12-14T20:01:11.103Z,7.53
2022-12-14T20:06:06.044Z,8.40
2022-12-14T20:10:59.725Z,11.17
2022-12-14T20:16:02.523Z,13.63
2022-12-14T20:21:07.741Z,10.85
2022-12-14T20:26:11.652Z,10.43
2022-12-14T20:31:12.043Z,9.63
2022-12-14T20:36:11.418Z,11.83
2022-12-14T20:41:06.262Z,13.65
2022-12-14T20:46:07.028Z,16.20
2022-12-14T20:51:01.694Z,15.63
2022-12-14T20:55:56.920Z,14.25
2022-12-14T21:06:04.448Z,12.63
2022-12-14T21:11:22.452Z,16.70
2022-12-14T21:16:20.093Z,19.47
2022-12-14T21:21:13.378Z,18.07
2022-12-14T21:26:09.647Z,16.37
2022-12-14T21:31:09.431Z,14.57
2022-12-14T21:36:09.695Z,11.20
2022-12-14T21:41:21.344Z,11.73
2022-12-14T21:46:25.500Z,12.77
2022-12-14T21:51:33.459Z,14.53
2022-12-14T21:56:48.976Z,15.00
2022-12-14T22:01:46.745Z,14.63
2022-12-14T22:06:40.443Z,15.63
2022-12-14T22:11:39.430Z,17.07
2022-12-14T22:16:34.711Z,15.70
2022-12-14T22:21:30.828Z,13.73
2022-12-14T22:26:24.712Z,12.00
2022-12-14T22:31:18.231Z,11.97
2022-12-14T22:36:15.131Z,12.23
2022-12-14T22:41:10.306Z,13.13
2022-12-14T22:46:08.159Z,12.40
2022-12-14T22:51:02.550Z,12.53
2022-12-14T22:55:58.693Z,13.20
2022-12-14T23:00:54.329Z,12.90
2022-12-14T23:05:47.880Z,12.30
2022-12-14T23:10:58.604Z,12.07
2022-12-14T23:16:10.814Z,14.40
2022-12-14T23:21:29.248Z,13.80
2022-12-14T23:26:42.630Z,12.83
2022-12-14T23:31:55.863Z,12.53
2022-12-14T23:37:06.847Z,12.33
2022-12-14T23:42:20.192Z,12.20
2022-12-14T23:47:32.381Z,12.63
2022-12-14T23:52:45.940Z,11.67
2022-12-14T23:58:00.135Z,12.07
